Time;durP1;ratioP1;P1;durP2;ratioP2;P2;SDS_P1;SDS_P2;PMS_P1;PMS_P2;Temp;Humidity;BMP_temperature;BMP_pressure;BME280_temperature;BME280_humidity;BME280_pressure;Samples;Min_cycle;Max_cycle;Signal;HPM_P1;HPM_P2
2024/01/29 00:02:30;;;;;;;;;;;1.20;84.40;;;;;;5123300;27;19963;-63
2024/01/29 00:05:02;;;;;;;;;;;1.20;84.30;;;;;;5142863;27;19931;-62
2024/01/29 00:07:35;;;;;;;;;;;1.10;84.60;;;;;;5142501;27;19951;-62
2024/01/29 00:10:08;;;;;;;;;;;1.10;84.50;;;;;;5142519;27;19984;-62
2024/01/29 00:12:43;;;;;;;;;;;1.20;84.40;;;;;;5143500;27;19935;-62
2024/01/29 00:15:15;;;;;;;;;;;1.20;84.40;;;;;;5141879;27;19926;-61
2024/01/29 00:17:48;;;;;;;;;;;1.20;84.30;;;;;;5140265;27;19927;-62
2024/01/29 00:20:21;;;;;;;;;;;1.10;84.20;;;;;;5142934;27;19927;-63
2024/01/29 00:22:54;;;;;;;;;;;1.10;84.30;;;;;;5144036;27;20334;-62
2024/01/29 00:25:27;;;;;;;;;;;1.10;84.20;;;;;;5143894;27;19983;-63
2024/01/29 00:28:02;;;;;;;;;;;1.10;84.30;;;;;;5143836;27;19927;-63
2024/01/29 00:30:35;;;;;;;;;;;1.00;84.30;;;;;;5136230;27;20009;-63
2024/01/29 00:33:08;;;;;;;;;;;1.10;84.30;;;;;;5143480;27;21263;-62
2024/01/29 00:35:41;;;;;;;;;;;1.10;84.30;;;;;;5143161;27;20022;-62
2024/01/29 00:38:08;;;;;;;;;;;1.00;84.10;;;;;;5142834;27;19930;-63
2024/01/29 00:40:41;;;;;;;;;;;1.00;84.30;;;;;;5142867;27;20665;-73
2024/01/29 00:43:16;;;;;;;;;;;1.10;84.40;;;;;;5142001;27;19927;-72
2024/01/29 00:45:49;;;;;;;;;;;1.10;84.30;;;;;;5138880;27;19973;-71
2024/01/29 00:48:24;;;;;;;;;;;1.10;84.30;;;;;;5142216;27;20406;-72
2024/01/29 00:50:57;;;;;;;;;;;1.10;84.50;;;;;;5138942;27;19928;-71
2024/01/29 00:53:30;;;;;;;;;;;1.10;84.40;;;;;;5141845;27;19927;-72
2024/01/29 00:56:04;;;;;;;;;;;1.10;84.30;;;;;;5141394;27;19999;-72
2024/01/29 00:58:39;;;;;;;;;;;1.10;84.30;;;;;;5142836;27;19926;-73
2024/01/29 01:01:12;;;;;;;;;;;1.10;84.30;;;;;;5141084;27;19941;-72
2024/01/29 01:03:45;;;;;;;;;;;1.20;84.30;;;;;;5142419;27;20054;-73
2024/01/29 01:06:18;;;;;;;;;;;1.10;84.60;;;;;;5141194;27;19923;-72
2024/01/29 01:08:51;;;;;;;;;;;1.10;84.40;;;;;;5142465;27;19954;-72
2024/01/29 01:11:24;;;;;;;;;;;1.00;84.40;;;;;;5140024;27;19931;-72
2024/01/29 01:13:53;;;;;;;;;;;1.00;84.70;;;;;;5141113;27;19929;-72
2024/01/29 01:16:26;;;;;;;;;;;1.00;84.60;;;;;;5138629;27;19947;-73
2024/01/29 01:18:59;;;;;;;;;;;1.00;84.80;;;;;;5141161;27;19949;-71
2024/01/29 01:21:32;;;;;;;;;;;1.00;85.00;;;;;;5136569;27;19927;-72
2024/01/29 01:24:06;;;;;;;;;;;1.10;85.20;;;;;;5140292;27;19935;-72
2024/01/29 01:26:39;;;;;;;;;;;1.00;85.00;;;;;;5140829;27;20010;-72
2024/01/29 01:29:07;;;;;;;;;;;1.10;85.00;;;;;;5141926;27;19923;-71
2024/01/29 01:31:40;;;;;;;;;;;1.00;84.90;;;;;;5142286;27;20379;-72
2024/01/29 01:34:13;;;;;;;;;;;1.00;84.80;;;;;;5142422;27;20327;-71
2024/01/29 01:36:46;;;;;;;;;;;1.00;85.00;;;;;;5142068;27;19927;-71
2024/01/29 01:39:19;;;;;;;;;;;1.00;84.90;;;;;;5140359;27;19957;-72
2024/01/29 01:41:52;;;;;;;;;;;1.00;85.00;;;;;;5141132;27;19960;-72
2024/01/29 01:44:27;;;;;;;;;;;1.00;85.00;;;;;;5141447;27;19927;-72
2024/01/29 01:47:00;;;;;;;;;;;1.00;85.00;;;;;;5142880;27;19930;-71
2024/01/29 01:49:33;;;;;;;;;;;1.00;85.00;;;;;;5142134;27;19976;-62
2024/01/29 01:52:07;;;;;;;;;;;1.10;84.90;;;;;;5143573;27;20010;-79
2024/01/29 01:54:41;;;;;;;;;;;1.10;84.90;;;;;;5142097;27;19942;-78
2024/01/29 01:57:14;;;;;;;;;;;1.20;85.00;;;;;;5143823;27;20018;-79
2024/01/29 01:59:48;;;;;;;;;;;1.20;84.60;;;;;;5131678;27;19945;-72
2024/01/29 02:02:21;;;;;;;;;;;1.30;85.80;;;;;;5133424;27;19923;-75
2024/01/29 02:04:54;;;;;;;;;;;1.50;86.40;;;;;;5130047;27;19931;-79
2024/01/29 02:07:27;;;;;;;;;;;1.30;85.30;;;;;;5129117;27;20000;-80
2024/01/29 02:10:00;;;;;;;;;;;1.30;85.10;;;;;;5138602;27;19942;-77
2024/01/29 02:12:33;;;;;;;;;;;1.30;85.30;;;;;;5141377;27;20433;-79
2024/01/29 02:15:08;;;;;;;;;;;1.20;85.20;;;;;;5120073;27;20348;-79
2024/01/29 02:17:41;;;;;;;;;;;1.20;85.50;;;;;;5119137;27;20014;-80
2024/01/29 02:20:09;;;;;;;;;;;1.10;85.40;;;;;;5139341;27;19927;-79
2024/01/29 02:22:44;;;;;;;;;;;1.20;86.90;;;;;;5140860;27;19923;-78
2024/01/29 02:25:17;;;;;;;;;;;1.50;87.80;;;;;;5143656;27;19950;-78
2024/01/29 02:27:50;;;;;;;;;;;1.60;87.70;;;;;;5142748;27;20371;-79
2024/01/29 02:30:23;;;;;;;;;;;1.40;87.30;;;;;;5143401;27;19923;-78
2024/01/29 02:32:56;;;;;;;;;;;1.20;87.00;;;;;;5146862;27;19923;-78
2024/01/29 02:35:29;;;;;;;;;;;1.20;86.70;;;;;;5143488;27;19929;-79
2024/01/29 02:38:04;;;;;;;;;;;1.20;86.40;;;;;;5145984;27;19927;-77
2024/01/29 02:40:37;;;;;;;;;;;1.20;86.00;;;;;;5145807;27;20304;-78
2024/01/29 02:43:17;;;;;;;;;;;1.10;86.10;;;;;;5126926;27;20373;-78
2024/01/29 02:45:51;;;;;;;;;;;1.00;85.40;;;;;;5123022;27;19977;-79
2024/01/29 02:48:24;;;;;;;;;;;1.00;85.30;;;;;;5124170;27;19923;-78
2024/01/29 02:50:57;;;;;;;;;;;0.90;85.40;;;;;;5133923;27;19967;-77
2024/01/29 02:53:32;;;;;;;;;;;0.90;85.70;;;;;;5127186;27;19923;-78
2024/01/29 02:56:06;;;;;;;;;;;0.90;85.60;;;;;;5125843;27;19927;-79
2024/01/29 02:58:38;;;;;;;;;;;0.90;85.40;;;;;;5139444;27;19934;-78
2024/01/29 03:01:11;;;;;;;;;;;0.80;85.50;;;;;;5143718;27;20009;-61
2024/01/29 03:03:44;;;;;;;;;;;0.70;85.40;;;;;;5144814;27;19927;-61
2024/01/29 03:06:17;;;;;;;;;;;0.70;85.50;;;;;;5144278;27;19927;-61
2024/01/29 03:08:46;;;;;;;;;;;0.80;85.50;;;;;;5144893;27;19983;-61
2024/01/29 03:11:19;;;;;;;;;;;0.80;85.50;;;;;;5144800;27;19931;-62
2024/01/29 03:13:52;;;;;;;;;;;0.80;85.50;;;;;;5144769;27;20002;-62
2024/01/29 03:16:25;;;;;;;;;;;0.80;85.40;;;;;;5144793;27;19923;-62
2024/01/29 03:18:59;;;;;;;;;;;0.70;85.60;;;;;;5144823;27;19929;-61
2024/01/29 03:21:32;;;;;;;;;;;0.80;85.70;;;;;;5135334;27;19928;-61
2024/01/29 03:24:06;;;;;;;;;;;0.80;85.50;;;;;;5141050;27;20045;-62
2024/01/29 03:26:40;;;;;;;;;;;0.80;85.20;;;;;;5144645;27;19923;-61
2024/01/29 03:29:13;;;;;;;;;;;0.80;85.20;;;;;;5146569;27;19927;-62
2024/01/29 03:31:45;;;;;;;;;;;0.90;85.10;;;;;;5145594;27;20423;-61
2024/01/29 03:34:18;;;;;;;;;;;0.80;85.00;;;;;;5143289;27;19938;-61
2024/01/29 03:36:52;;;;;;;;;;;0.80;84.90;;;;;;5145220;27;19924;-60
2024/01/29 03:39:26;;;;;;;;;;;0.80;84.90;;;;;;5143360;27;19962;-61
2024/01/29 03:41:59;;;;;;;;;;;0.80;85.00;;;;;;5144128;27;19927;-63
2024/01/29 03:44:26;;;;;;;;;;;0.70;85.00;;;;;;5144233;27;19992;-62
2024/01/29 03:46:59;;;;;;;;;;;0.70;85.00;;;;;;5143222;27;19927;-61
2024/01/29 03:49:33;;;;;;;;;;;0.70;85.00;;;;;;5127245;27;19934;-61
2024/01/29 03:52:07;;;;;;;;;;;0.70;85.10;;;;;;5143594;27;19924;-62
2024/01/29 03:54:41;;;;;;;;;;;0.60;85.10;;;;;;5138048;27;19972;-62
2024/01/29 03:57:14;;;;;;;;;;;0.70;85.10;;;;;;5131031;27;19937;-62
2024/01/29 03:59:48;;;;;;;;;;;0.40;84.90;;;;;;5129071;27;20010;-62
2024/01/29 04:02:20;;;;;;;;;;;0.50;85.40;;;;;;5143818;27;20376;-60
2024/01/29 04:04:53;;;;;;;;;;;0.30;85.30;;;;;;5144032;27;19955;-63
2024/01/29 04:07:20;;;;;;;;;;;0.40;85.40;;;;;;5144897;27;19946;-62
2024/01/29 04:09:55;;;;;;;;;;;0.50;85.30;;;;;;5144153;27;19933;-64
2024/01/29 04:12:28;;;;;;;;;;;0.40;85.20;;;;;;5132616;27;19929;-64
2024/01/29 04:15:10;;;;;;;;;;;0.40;85.20;;;;;;5131196;27;19923;-62
2024/01/29 04:17:44;;;;;;;;;;;0.50;85.20;;;;;;5142588;27;19995;-65
2024/01/29 04:20:17;;;;;;;;;;;0.60;85.00;;;;;;5143601;27;20018;-62
2024/01/29 04:22:49;;;;;;;;;;;0.60;84.90;;;;;;5136433;27;19928;-63
2024/01/29 04:25:24;;;;;;;;;;;0.60;84.80;;;;;;5144543;27;19931;-63
2024/01/29 04:27:57;;;;;;;;;;;0.60;85.00;;;;;;5146114;27;19927;-63
2024/01/29 04:30:32;;;;;;;;;;;0.60;85.00;;;;;;5143187;27;19931;-66
2024/01/29 04:33:05;;;;;;;;;;;0.60;84.80;;;;;;5142367;27;19991;-63
2024/01/29 04:35:39;;;;;;;;;;;0.70;84.60;;;;;;5143605;27;20011;-63
2024/01/29 04:38:12;;;;;;;;;;;0.80;84.60;;;;;;5143400;27;19931;-63
2024/01/29 04:40:46;;;;;;;;;;;0.80;84.30;;;;;;5142741;27;20014;-63
2024/01/29 04:43:19;;;;;;;;;;;0.80;84.40;;;;;;5140678;27;19923;-63
2024/01/29 04:45:53;;;;;;;;;;;0.70;84.10;;;;;;5141702;27;19923;-63
2024/01/29 04:48:20;;;;;;;;;;;0.60;84.70;;;;;;5142565;27;19923;-61
2024/01/29 04:50:54;;;;;;;;;;;0.60;84.80;;;;;;5143946;27;19923;-61
2024/01/29 04:53:27;;;;;;;;;;;0.60;84.90;;;;;;5142194;27;19923;-63
2024/01/29 04:56:02;;;;;;;;;;;0.60;84.80;;;;;;5142798;27;19931;-62
2024/01/29 04:58:36;;;;;;;;;;;0.70;84.90;;;;;;5141049;27;19938;-63
2024/01/29 05:01:10;;;;;;;;;;;0.80;84.70;;;;;;5142294;27;19970;-63
2024/01/29 05:03:43;;;;;;;;;;;0.80;84.80;;;;;;5137510;27;20004;-62
2024/01/29 05:06:16;;;;;;;;;;;0.80;84.60;;;;;;5133243;27;19935;-62
2024/01/29 05:08:49;;;;;;;;;;;0.70;84.80;;;;;;5127579;27;19935;-62
2024/01/29 05:11:23;;;;;;;;;;;0.70;84.70;;;;;;5130385;27;20455;-62
2024/01/29 05:13:57;;;;;;;;;;;0.80;84.80;;;;;;5127296;27;19931;-62
2024/01/29 05:16:32;;;;;;;;;;;0.80;84.90;;;;;;5123250;27;19938;-61
2024/01/29 05:19:06;;;;;;;;;;;0.80;84.80;;;;;;5125797;27;19931;-62
2024/01/29 05:21:32;;;;;;;;;;;0.70;84.90;;;;;;5122605;27;19927;-62
2024/01/29 05:24:06;;;;;;;;;;;0.70;84.80;;;;;;5128011;27;19988;-63
2024/01/29 05:27:14;;;;;;;;;;;0.70;85.10;;;;;;5125938;27;20426;-63
2024/01/29 05:29:49;;;;;;;;;;;0.70;85.00;;;;;;5141541;27;20303;-63
2024/01/29 05:32:23;;;;;;;;;;;0.70;85.00;;;;;;5140281;27;20007;-68
2024/01/29 05:34:56;;;;;;;;;;;0.60;85.00;;;;;;5138748;27;19927;-64
2024/01/29 05:37:31;;;;;;;;;;;0.60;85.00;;;;;;5139283;27;19930;-63
2024/01/29 05:40:05;;;;;;;;;;;0.60;85.00;;;;;;5143174;27;19927;-64
2024/01/29 05:42:39;;;;;;;;;;;0.60;85.00;;;;;;5139639;27;19923;-62
2024/01/29 05:45:13;;;;;;;;;;;0.60;84.90;;;;;;5140526;27;19923;-63
2024/01/29 05:47:47;;;;;;;;;;;0.60;85.00;;;;;;5139591;27;19937;-63
2024/01/29 05:50:20;;;;;;;;;;;0.70;84.90;;;;;;5141409;27;19987;-63
2024/01/29 05:53:20;;;;;;;;;;;0.70;84.90;;;;;;5140793;27;19932;-63
2024/01/29 05:55:53;;;;;;;;;;;0.70;84.70;;;;;;5141690;27;20358;-63
2024/01/29 05:58:27;;;;;;;;;;;0.70;84.70;;;;;;5139797;27;19923;-62
2024/01/29 06:01:02;;;;;;;;;;;0.70;84.70;;;;;;5139757;27;19957;-62
2024/01/29 06:03:36;;;;;;;;;;;0.60;84.80;;;;;;5140396;27;19938;-62
2024/01/29 06:06:09;;;;;;;;;;;0.60;84.70;;;;;;5140091;27;19923;-62
2024/01/29 06:08:42;;;;;;;;;;;0.60;84.70;;;;;;5140827;27;20384;-61
2024/01/29 06:11:15;;;;;;;;;;;0.60;84.70;;;;;;5139584;27;19930;-63
2024/01/29 06:13:48;;;;;;;;;;;0.50;84.80;;;;;;5139353;27;19939;-63
2024/01/29 06:16:29;;;;;;;;;;;0.60;84.80;;;;;;5139759;27;20330;-62
2024/01/29 06:19:02;;;;;;;;;;;0.60;84.80;;;;;;5141376;27;19988;-62
2024/01/29 06:21:35;;;;;;;;;;;0.50;84.90;;;;;;5121164;28;19931;-63
2024/01/29 06:24:08;;;;;;;;;;;0.50;84.90;;;;;;5122001;28;19927;-62
2024/01/29 06:26:41;;;;;;;;;;;0.50;84.90;;;;;;5128266;27;20381;-63
2024/01/29 06:29:15;;;;;;;;;;;0.60;85.00;;;;;;5138194;27;19938;-62
2024/01/29 06:31:49;;;;;;;;;;;0.50;85.00;;;;;;5141485;27;19966;-62
2024/01/29 06:34:25;;;;;;;;;;;0.60;84.90;;;;;;5141940;27;19931;-61
2024/01/29 06:36:52;;;;;;;;;;;0.50;84.80;;;;;;5141415;27;20009;-64
2024/01/29 06:39:26;;;;;;;;;;;0.60;84.90;;;;;;5144373;27;19931;-64
2024/01/29 06:41:59;;;;;;;;;;;0.50;84.90;;;;;;5146332;27;19956;-62
2024/01/29 06:44:32;;;;;;;;;;;0.60;84.80;;;;;;5146172;27;19937;-62
2024/01/29 06:47:06;;;;;;;;;;;0.50;84.80;;;;;;5144412;27;20413;-62
2024/01/29 06:49:40;;;;;;;;;;;0.50;84.80;;;;;;5143801;27;19931;-63
2024/01/29 06:52:13;;;;;;;;;;;0.50;84.80;;;;;;5143287;27;19931;-62
2024/01/29 06:54:46;;;;;;;;;;;0.60;84.70;;;;;;5144520;27;19975;-62
2024/01/29 06:57:19;;;;;;;;;;;0.50;84.70;;;;;;5143478;27;19927;-60
2024/01/29 06:59:52;;;;;;;;;;;0.50;84.70;;;;;;5144748;27;20245;-61
2024/01/29 07:02:26;;;;;;;;;;;0.50;84.80;;;;;;5144667;27;19928;-61
2024/01/29 07:05:00;;;;;;;;;;;0.50;84.80;;;;;;5144185;27;19982;-61
2024/01/29 07:07:33;;;;;;;;;;;0.50;84.80;;;;;;5144187;27;20014;-60
2024/01/29 07:10:06;;;;;;;;;;;0.50;84.70;;;;;;5145284;27;19935;-62
2024/01/29 07:12:40;;;;;;;;;;;0.50;84.70;;;;;;5144518;27;19923;-62
2024/01/29 07:15:14;;;;;;;;;;;0.50;84.70;;;;;;5134767;27;20382;-61
2024/01/29 07:17:49;;;;;;;;;;;0.50;84.70;;;;;;5129830;27;19923;-62
2024/01/29 07:20:23;;;;;;;;;;;0.50;84.80;;;;;;5142307;27;19931;-62
2024/01/29 07:22:56;;;;;;;;;;;0.50;84.80;;;;;;5144031;27;19972;-61
2024/01/29 07:25:23;;;;;;;;;;;0.40;84.80;;;;;;5143983;27;19976;-61
2024/01/29 07:27:59;;;;;;;;;;;0.50;84.80;;;;;;5141811;27;19973;-61
2024/01/29 07:30:32;;;;;;;;;;;0.50;84.80;;;;;;5136684;27;19950;-61
2024/01/29 07:33:06;;;;;;;;;;;0.50;84.80;;;;;;5141471;27;20421;-61
2024/01/29 07:35:40;;;;;;;;;;;0.40;84.80;;;;;;5143282;27;19930;-62
2024/01/29 07:38:13;;;;;;;;;;;0.40;85.00;;;;;;5142351;27;19931;-61
2024/01/29 07:40:46;;;;;;;;;;;0.50;85.00;;;;;;5145248;27;19923;-66
2024/01/29 07:43:12;;;;;;;;;;;0.50;84.90;;;;;;5141776;27;19943;-64
2024/01/29 07:45:46;;;;;;;;;;;0.50;84.90;;;;;;5121849;27;21239;-65
2024/01/29 07:51:56;;;;;;;;;;;0.50;84.90;;;;;;5121746;27;20463;-66
2024/01/29 07:54:29;;;;;;;;;;;0.50;84.90;;;;;;5118353;27;20023;-66
2024/01/29 07:57:03;;;;;;;;;;;0.60;85.10;;;;;;5140524;27;20293;-64
2024/01/29 07:59:36;;;;;;;;;;;0.50;85.10;;;;;;5145148;27;19923;-64
2024/01/29 08:02:09;;;;;;;;;;;0.60;85.10;;;;;;5143512;27;20649;-64
2024/01/29 08:04:43;;;;;;;;;;;0.60;85.20;;;;;;5131427;27;19938;-65
2024/01/29 08:07:17;;;;;;;;;;;0.60;85.20;;;;;;5136029;27;19923;-65
2024/01/29 08:09:51;;;;;;;;;;;0.60;85.10;;;;;;5144785;27;20006;-66
2024/01/29 08:12:24;;;;;;;;;;;0.60;85.10;;;;;;5142902;27;20422;-66
2024/01/29 08:14:57;;;;;;;;;;;0.60;85.30;;;;;;5146456;27;20253;-65
2024/01/29 08:17:30;;;;;;;;;;;0.60;85.30;;;;;;5122888;27;19930;-66
2024/01/29 08:20:04;;;;;;;;;;;0.60;85.40;;;;;;5129710;27;19927;-66
2024/01/29 08:22:38;;;;;;;;;;;0.70;85.20;;;;;;5144504;27;19923;-66
2024/01/29 08:25:18;;;;;;;;;;;0.70;85.10;;;;;;5143143;27;20417;-65
2024/01/29 08:27:52;;;;;;;;;;;0.70;85.10;;;;;;5142375;27;19970;-65
2024/01/29 08:30:25;;;;;;;;;;;0.70;85.00;;;;;;5143437;27;20015;-66
2024/01/29 08:32:59;;;;;;;;;;;0.80;84.90;;;;;;5143305;27;20377;-66
2024/01/29 08:35:32;;;;;;;;;;;0.80;84.80;;;;;;5143170;27;20467;-66
2024/01/29 08:38:06;;;;;;;;;;;0.90;84.90;;;;;;5144077;27;19970;-66
2024/01/29 08:40:40;;;;;;;;;;;0.90;84.80;;;;;;5144551;27;19999;-66
2024/01/29 08:43:14;;;;;;;;;;;0.90;84.80;;;;;;5142747;27;20006;-65
2024/01/29 08:45:47;;;;;;;;;;;1.00;84.80;;;;;;5144091;27;19930;-66
2024/01/29 08:48:20;;;;;;;;;;;0.90;84.90;;;;;;5143257;27;19930;-66
2024/01/29 08:50:53;;;;;;;;;;;1.00;84.80;;;;;;5143225;27;19929;-63
2024/01/29 08:53:28;;;;;;;;;;;1.00;84.90;;;;;;5142331;27;19968;-61
2024/01/29 08:56:02;;;;;;;;;;;1.10;84.90;;;;;;5144001;27;19923;-63
2024/01/29 08:58:35;;;;;;;;;;;1.10;84.80;;;;;;5143257;27;19923;-61
2024/01/29 09:01:08;;;;;;;;;;;1.20;84.90;;;;;;5141036;27;20010;-62
2024/01/29 09:03:41;;;;;;;;;;;1.10;84.90;;;;;;5142564;27;20002;-63
2024/01/29 09:06:14;;;;;;;;;;;1.20;84.90;;;;;;5141842;27;19930;-64
2024/01/29 09:08:48;;;;;;;;;;;1.20;85.10;;;;;;5136419;27;19927;-61
2024/01/29 09:11:22;;;;;;;;;;;1.30;85.00;;;;;;5139398;27;19923;-63
2024/01/29 09:13:55;;;;;;;;;;;1.30;85.00;;;;;;5142512;27;19976;-61
2024/01/29 09:16:28;;;;;;;;;;;1.30;85.20;;;;;;5143461;27;20377;-64
2024/01/29 09:19:01;;;;;;;;;;;1.40;85.10;;;;;;5143841;27;19934;-61
2024/01/29 09:21:36;;;;;;;;;;;1.40;85.00;;;;;;5143189;27;19924;-62
2024/01/29 09:24:11;;;;;;;;;;;1.40;85.10;;;;;;5141846;27;19927;-61
2024/01/29 09:26:45;;;;;;;;;;;1.50;85.10;;;;;;5142068;27;20422;-62
2024/01/29 09:29:18;;;;;;;;;;;1.60;85.10;;;;;;5141576;27;20006;-61
2024/01/29 09:31:51;;;;;;;;;;;1.60;85.10;;;;;;5141696;27;20023;-62
2024/01/29 09:34:24;;;;;;;;;;;1.70;85.00;;;;;;5142248;27;19927;-62
2024/01/29 09:36:59;;;;;;;;;;;1.70;85.00;;;;;;5144358;27;19923;-62
2024/01/29 09:39:33;;;;;;;;;;;1.70;85.00;;;;;;5143042;27;19970;-61
2024/01/29 09:42:06;;;;;;;;;;;1.80;85.30;;;;;;5141990;27;19934;-62
2024/01/29 09:44:39;;;;;;;;;;;1.90;85.30;;;;;;5141792;27;19927;-62
2024/01/29 09:47:13;;;;;;;;;;;1.90;85.30;;;;;;5141464;27;20007;-62
2024/01/29 09:49:47;;;;;;;;;;;2.00;85.40;;;;;;5141726;27;20022;-62
2024/01/29 09:52:20;;;;;;;;;;;2.00;85.50;;;;;;5141773;27;19931;-60
2024/01/29 09:54:56;;;;;;;;;;;2.10;85.40;;;;;;5142759;27;19988;-60
2024/01/29 09:57:29;;;;;;;;;;;2.20;85.40;;;;;;5140811;27;20389;-61
2024/01/29 10:00:02;;;;;;;;;;;2.20;85.50;;;;;;5142610;27;19971;-62
2024/01/29 10:02:37;;;;;;;;;;;2.30;85.40;;;;;;5141979;27;20385;-61
2024/01/29 10:05:06;;;;;;;;;;;2.40;85.10;;;;;;5141492;27;19934;-61
2024/01/29 10:07:40;;;;;;;;;;;2.40;85.00;;;;;;5142032;27;19927;-63
2024/01/29 10:10:09;;;;;;;;;;;2.50;84.80;;;;;;5141073;27;19931;-62
2024/01/29 10:12:43;;;;;;;;;;;2.60;84.90;;;;;;5141420;27;19931;-61
2024/01/29 10:15:10;;;;;;;;;;;2.60;84.70;;;;;;5141520;27;20009;-61
2024/01/29 10:17:51;;;;;;;;;;;2.70;84.80;;;;;;5140924;27;20437;-61
2024/01/29 10:20:25;;;;;;;;;;;2.70;84.70;;;;;;5139928;27;19968;-62
2024/01/29 10:22:58;;;;;;;;;;;2.80;84.60;;;;;;5142229;27;19927;-61
2024/01/29 10:25:26;;;;;;;;;;;2.80;84.50;;;;;;5140941;27;19927;-62
2024/01/29 10:28:09;;;;;;;;;;;2.90;84.40;;;;;;5142331;27;19927;-61
2024/01/29 10:30:42;;;;;;;;;;;2.90;84.90;;;;;;5128702;27;19939;-62
2024/01/29 10:33:15;;;;;;;;;;;3.00;84.80;;;;;;5140872;27;20362;-63
2024/01/29 10:35:48;;;;;;;;;;;3.10;84.60;;;;;;5141456;27;20297;-61
2024/01/29 10:38:23;;;;;;;;;;;3.10;84.80;;;;;;5140749;27;20339;-63
2024/01/29 10:40:59;;;;;;;;;;;3.20;84.50;;;;;;5140877;27;19931;-62
2024/01/29 10:43:37;;;;;;;;;;;3.30;84.40;;;;;;5142197;27;19923;-62
2024/01/29 10:46:11;;;;;;;;;;;3.30;84.40;;;;;;5139997;27;19980;-62
2024/01/29 10:48:38;;;;;;;;;;;3.40;84.20;;;;;;5141057;27;19924;-61
2024/01/29 10:51:13;;;;;;;;;;;3.50;84.10;;;;;;5141274;27;19958;-61
2024/01/29 10:53:48;;;;;;;;;;;3.50;84.00;;;;;;5137576;27;19934;-61
2024/01/29 10:56:22;;;;;;;;;;;3.60;84.20;;;;;;5140250;27;19923;-62
2024/01/29 10:58:58;;;;;;;;;;;3.60;83.90;;;;;;5141294;27;19930;-62
2024/01/29 11:01:31;;;;;;;;;;;3.70;83.70;;;;;;5125416;27;19999;-61
2024/01/29 11:04:05;;;;;;;;;;;3.70;83.90;;;;;;5123401;27;19927;-62
2024/01/29 11:06:36;;;;;;;;;;;3.70;83.90;;;;;;5141200;27;19942;-61
2024/01/29 11:09:12;;;;;;;;;;;3.80;84.10;;;;;;5140195;27;19946;-62
2024/01/29 11:11:48;;;;;;;;;;;3.80;84.20;;;;;;5133674;27;20351;-63
2024/01/29 11:14:22;;;;;;;;;;;3.90;83.90;;;;;;5139312;27;21926;-61
2024/01/29 11:16:50;;;;;;;;;;;4.00;84.00;;;;;;5146896;27;20401;-63
2024/01/29 11:19:26;;;;;;;;;;;4.00;83.70;;;;;;5140340;27;19930;-63
2024/01/29 11:22:01;;;;;;;;;;;4.00;83.60;;;;;;5144042;27;19927;-62
2024/01/29 11:24:35;;;;;;;;;;;4.10;83.50;;;;;;5143788;27;20450;-64
2024/01/29 11:27:09;;;;;;;;;;;4.20;83.40;;;;;;5115799;27;19931;-63
2024/01/29 11:29:44;;;;;;;;;;;4.20;83.00;;;;;;5143710;27;20006;-62
2024/01/29 11:32:18;;;;;;;;;;;4.20;83.20;;;;;;5145611;27;20006;-63
2024/01/29 11:34:44;;;;;;;;;;;4.30;83.40;;;;;;5143911;27;20019;-63
2024/01/29 11:37:25;;;;;;;;;;;4.30;82.90;;;;;;5145815;27;20378;-62
2024/01/29 11:39:58;;;;;;;;;;;4.30;82.80;;;;;;5142928;27;19927;-63
2024/01/29 11:42:32;;;;;;;;;;;4.30;83.30;;;;;;5143513;27;19931;-63
2024/01/29 11:45:08;;;;;;;;;;;4.40;83.20;;;;;;5143329;27;19923;-63
2024/01/29 11:47:42;;;;;;;;;;;4.40;83.10;;;;;;5144397;27;19923;-62
2024/01/29 11:50:15;;;;;;;;;;;4.40;83.70;;;;;;5144359;27;19937;-64
2024/01/29 11:52:41;;;;;;;;;;;4.40;83.50;;;;;;5141889;27;19923;-62
2024/01/29 11:55:15;;;;;;;;;;;4.40;83.50;;;;;;5144494;27;19937;-62
2024/01/29 11:57:52;;;;;;;;;;;4.50;83.70;;;;;;5144412;27;19930;-62
2024/01/29 12:00:25;;;;;;;;;;;4.60;83.20;;;;;;5144817;27;20449;-63
2024/01/29 12:02:58;;;;;;;;;;;4.60;83.00;;;;;;5143531;27;19927;-61
2024/01/29 12:05:31;;;;;;;;;;;4.70;82.50;;;;;;5133747;27;19927;-62
2024/01/29 12:08:04;;;;;;;;;;;5.00;81.60;;;;;;5142043;27;19982;-63
2024/01/29 12:10:38;;;;;;;;;;;5.20;81.20;;;;;;5144227;27;19987;-63
2024/01/29 12:13:13;;;;;;;;;;;5.30;80.30;;;;;;5135286;27;19923;-64
2024/01/29 12:15:48;;;;;;;;;;;5.20;80.70;;;;;;5136527;27;19923;-62
2024/01/29 12:18:16;;;;;;;;;;;5.20;80.90;;;;;;5132697;27;19931;-66
2024/01/29 12:20:50;;;;;;;;;;;5.10;80.70;;;;;;5142117;27;19945;-62
2024/01/29 12:23:23;;;;;;;;;;;5.10;80.80;;;;;;5143023;27;19934;-62
2024/01/29 12:25:51;;;;;;;;;;;5.20;80.20;;;;;;5143094;27;20282;-61
2024/01/29 12:28:26;;;;;;;;;;;5.20;80.10;;;;;;5132919;27;20422;-62
2024/01/29 12:31:04;;;;;;;;;;;5.30;80.10;;;;;;5122345;27;20011;-62
2024/01/29 12:33:37;;;;;;;;;;;5.30;80.10;;;;;;5122760;27;20358;-62
2024/01/29 12:36:21;;;;;;;;;;;5.30;80.00;;;;;;5120292;27;19927;-62
2024/01/29 12:38:57;;;;;;;;;;;5.30;79.80;;;;;;5129852;27;19924;-62
2024/01/29 12:41:33;;;;;;;;;;;5.40;79.80;;;;;;5143361;27;20278;-61
2024/01/29 12:44:12;;;;;;;;;;;5.30;79.90;;;;;;5134157;27;19930;-62
2024/01/29 12:46:55;;;;;;;;;;;5.40;79.50;;;;;;5142668;27;19955;-64
2024/01/29 12:49:28;;;;;;;;;;;5.40;79.40;;;;;;5139940;27;20342;-62
2024/01/29 12:52:01;;;;;;;;;;;5.40;79.60;;;;;;5131936;27;19946;-61
2024/01/29 12:54:34;;;;;;;;;;;5.40;79.60;;;;;;5143529;27;19945;-61
2024/01/29 12:57:07;;;;;;;;;;;5.50;79.70;;;;;;5144448;27;19938;-62
2024/01/29 12:59:41;;;;;;;;;;;5.50;79.60;;;;;;5142524;27;20011;-62
2024/01/29 13:02:15;;;;;;;;;;;5.50;79.60;;;;;;5141553;27;19927;-62
2024/01/29 13:04:48;;;;;;;;;;;5.60;79.50;;;;;;5142370;27;19924;-61
2024/01/29 13:07:21;;;;;;;;;;;5.60;79.60;;;;;;5141751;27;19924;-62
2024/01/29 13:09:54;;;;;;;;;;;5.60;79.50;;;;;;5139814;27;19923;-61
2024/01/29 13:12:28;;;;;;;;;;;5.70;79.50;;;;;;5142649;27;19938;-61
2024/01/29 13:15:03;;;;;;;;;;;5.70;79.60;;;;;;5142225;27;19927;-63
2024/01/29 13:17:36;;;;;;;;;;;5.70;79.70;;;;;;5140390;27;19924;-61
2024/01/29 13:20:11;;;;;;;;;;;5.70;79.80;;;;;;5141385;27;20023;-61
2024/01/29 13:22:45;;;;;;;;;;;5.70;79.60;;;;;;5141560;27;20388;-62
2024/01/29 13:25:18;;;;;;;;;;;5.70;79.70;;;;;;5142077;27;19924;-61
2024/01/29 13:27:52;;;;;;;;;;;5.80;79.70;;;;;;5142379;27;20292;-62
2024/01/29 13:30:26;;;;;;;;;;;5.90;79.70;;;;;;5129589;27;20037;-74
2024/01/29 13:33:00;;;;;;;;;;;5.80;79.80;;;;;;5142049;27;19927;-74
2024/01/29 13:35:33;;;;;;;;;;;5.80;80.00;;;;;;5142378;27;20003;-73
2024/01/29 13:38:06;;;;;;;;;;;5.80;80.00;;;;;;5141593;27;19923;-73
2024/01/29 13:40:39;;;;;;;;;;;5.80;80.10;;;;;;5141827;27;20293;-78
2024/01/29 13:43:12;;;;;;;;;;;5.80;80.50;;;;;;5141153;27;19930;-74
2024/01/29 13:45:47;;;;;;;;;;;5.80;80.70;;;;;;5141805;27;19930;-74
2024/01/29 13:48:20;;;;;;;;;;;5.90;80.00;;;;;;5142936;27;19988;-74
2024/01/29 13:50:53;;;;;;;;;;;5.90;79.90;;;;;;5139883;27;19955;-73
2024/01/29 13:53:27;;;;;;;;;;;5.90;80.00;;;;;;5143176;27;20285;-73
2024/01/29 13:56:00;;;;;;;;;;;5.90;79.80;;;;;;5141816;27;20010;-73
2024/01/29 13:58:26;;;;;;;;;;;5.90;79.50;;;;;;5141611;27;19934;-73
2024/01/29 14:01:01;;;;;;;;;;;5.90;79.70;;;;;;5142950;27;19959;-73
2024/01/29 14:03:49;;;;;;;;;;;5.90;79.60;;;;;;5140524;27;27076;-73
2024/01/29 14:06:29;;;;;;;;;;;5.90;79.70;;;;;;5142787;27;19946;-74
2024/01/29 14:09:04;;;;;;;;;;;5.90;79.40;;;;;;5141160;27;19927;-71
2024/01/29 14:11:38;;;;;;;;;;;5.90;79.60;;;;;;5144794;27;19938;-73
2024/01/29 14:14:11;;;;;;;;;;;6.00;78.90;;;;;;5142201;27;19958;-74
2024/01/29 14:16:45;;;;;;;;;;;6.10;78.90;;;;;;5141402;27;19934;-74
2024/01/29 14:19:19;;;;;;;;;;;6.10;78.60;;;;;;5141094;27;19930;-74
2024/01/29 14:21:52;;;;;;;;;;;6.10;78.70;;;;;;5141606;27;19934;-73
2024/01/29 14:24:25;;;;;;;;;;;6.00;78.60;;;;;;5142298;27;20034;-75
2024/01/29 14:26:58;;;;;;;;;;;6.00;78.30;;;;;;5141576;27;19924;-74
2024/01/29 14:29:31;;;;;;;;;;;6.10;78.40;;;;;;5125192;27;20381;-73
2024/01/29 14:32:05;;;;;;;;;;;6.10;78.20;;;;;;5124508;27;20389;-73
2024/01/29 14:34:39;;;;;;;;;;;6.10;77.80;;;;;;5127683;27;19973;-73
2024/01/29 14:37:13;;;;;;;;;;;6.10;77.80;;;;;;5119825;27;19931;-74
2024/01/29 14:39:46;;;;;;;;;;;6.20;77.80;;;;;;5120363;27;19980;-66
2024/01/29 14:42:19;;;;;;;;;;;6.20;77.70;;;;;;5120229;27;20003;-66
2024/01/29 14:44:53;;;;;;;;;;;6.20;77.80;;;;;;5120517;27;20331;-66
2024/01/29 14:47:34;;;;;;;;;;;6.10;77.70;;;;;;5122594;27;20022;-67
2024/01/29 14:50:07;;;;;;;;;;;6.20;77.80;;;;;;5121198;27;19947;-66
2024/01/29 14:52:40;;;;;;;;;;;6.20;77.80;;;;;;5120169;27;19969;-65
2024/01/29 14:55:13;;;;;;;;;;;6.20;77.90;;;;;;5122134;27;19924;-67
2024/01/29 14:57:46;;;;;;;;;;;6.30;77.10;;;;;;5122754;27;19923;-65
2024/01/29 15:00:19;;;;;;;;;;;6.30;76.70;;;;;;5123079;27;20362;-66
2024/01/29 15:02:47;;;;;;;;;;;6.40;76.20;;;;;;5123465;27;19927;-67
2024/01/29 15:05:21;;;;;;;;;;;6.40;75.90;;;;;;5143779;27;20386;-67
2024/01/29 15:07:54;;;;;;;;;;;6.40;76.00;;;;;;5145144;27;19927;-66
2024/01/29 15:10:27;;;;;;;;;;;6.40;76.10;;;;;;5144575;27;19949;-68
2024/01/29 15:13:00;;;;;;;;;;;6.30;76.30;;;;;;5145629;27;19968;-66